sensor_id;sensor_type;location;lat;lon;timestamp;pressure;altitude;pressure_sealevel;temperature;humidity
60715;BME280;46564;53.096;8.246;2023-02-01T00:04:30;101276.81;;;4.43;83.73
60715;BME280;46564;53.096;8.246;2023-02-01T00:09:32;101270.97;;;4.48;83.82
60715;BME280;46564;53.096;8.246;2023-02-01T00:14:33;101269.81;;;4.42;83.37
60715;BME280;46564;53.096;8.246;2023-02-01T00:19:39;101262.97;;;4.43;83.27
60715;BME280;46564;53.096;8.246;2023-02-01T00:24:41;101244.94;;;4.46;83.46
60715;BME280;46564;53.096;8.246;2023-02-01T00:29:43;101249.91;;;4.41;83.54
60715;BME280;46564;53.096;8.246;2023-02-01T00:34:46;101242.13;;;4.41;83.39
60715;BME280;46564;53.096;8.246;2023-02-01T00:39:47;101235.31;;;4.43;83.34
60715;BME280;46564;53.096;8.246;2023-02-01T00:44:49;101230.28;;;4.47;83.41
60715;BME280;46564;53.096;8.246;2023-02-01T00:49:50;101226.72;;;4.45;83.45
60715;BME280;46564;53.096;8.246;2023-02-01T00:54:52;101231.00;;;4.44;83.53
60715;BME280;46564;53.096;8.246;2023-02-01T00:59:53;101214.72;;;4.47;84.14
60715;BME280;46564;53.096;8.246;2023-02-01T01:04:55;101218.25;;;4.49;83.45
60715;BME280;46564;53.096;8.246;2023-02-01T01:09:56;101221.69;;;4.48;83.54
60715;BME280;46564;53.096;8.246;2023-02-01T01:14:58;101210.63;;;4.52;83.55
60715;BME280;46564;53.096;8.246;2023-02-01T01:19:59;101210.47;;;4.49;83.57
60715;BME280;46564;53.096;8.246;2023-02-01T01:25:01;101197.50;;;4.49;83.63
60715;BME280;46564;53.096;8.246;2023-02-01T01:30:03;101194.13;;;4.50;83.55
60715;BME280;46564;53.096;8.246;2023-02-01T01:35:05;101194.84;;;4.47;83.71
60715;BME280;46564;53.096;8.246;2023-02-01T01:40:09;101183.59;;;4.47;83.92
60715;BME280;46564;53.096;8.246;2023-02-01T01:45:31;101176.75;;;4.49;83.85
60715;BME280;46564;53.096;8.246;2023-02-01T01:50:37;101161.19;;;4.49;83.77
60715;BME280;46564;53.096;8.246;2023-02-01T01:55:43;101163.94;;;4.52;83.73
60715;BME280;46564;53.096;8.246;2023-02-01T02:00:46;101147.50;;;4.51;83.81
60715;BME280;46564;53.096;8.246;2023-02-01T02:05:50;101145.66;;;4.49;83.70
60715;BME280;46564;53.096;8.246;2023-02-01T02:10:53;101140.47;;;4.49;83.78
60715;BME280;46564;53.096;8.246;2023-02-01T02:37:53;101090.97;;;4.44;84.44
60715;BME280;46564;53.096;8.246;2023-02-01T02:53:33;101078.72;;;4.40;85.29
60715;BME280;46564;53.096;8.246;2023-02-01T02:58:56;101071.72;;;4.39;85.41
60715;BME280;46564;53.096;8.246;2023-02-01T03:04:18;101066.47;;;4.37;85.58
60715;BME280;46564;53.096;8.246;2023-02-01T03:09:27;101055.97;;;4.34;86.04
60715;BME280;46564;53.096;8.246;2023-02-01T03:14:35;101072.63;;;4.21;86.57
60715;BME280;46564;53.096;8.246;2023-02-01T03:19:46;101072.94;;;4.10;87.34
60715;BME280;46564;53.096;8.246;2023-02-01T03:24:55;101062.13;;;4.00;87.99
60715;BME280;46564;53.096;8.246;2023-02-01T03:30:07;101051.47;;;3.94;88.53
60715;BME280;46564;53.096;8.246;2023-02-01T03:35:11;101040.00;;;3.89;89.11
60715;BME280;46564;53.096;8.246;2023-02-01T03:40:15;101035.56;;;3.86;89.57
60715;BME280;46564;53.096;8.246;2023-02-01T03:45:34;101029.38;;;3.83;89.97
60715;BME280;46564;53.096;8.246;2023-02-01T03:50:39;101020.59;;;3.81;90.52
60715;BME280;46564;53.096;8.246;2023-02-01T03:55:45;101009.28;;;3.79;90.74
60715;BME280;46564;53.096;8.246;2023-02-01T04:00:57;100990.19;;;3.77;91.18
60715;BME280;46564;53.096;8.246;2023-02-01T04:05:59;100990.31;;;3.80;91.51
60715;BME280;46564;53.096;8.246;2023-02-01T04:11:02;100983.59;;;3.83;91.82
60715;BME280;46564;53.096;8.246;2023-02-01T04:16:05;100983.69;;;3.85;91.84
60715;BME280;46564;53.096;8.246;2023-02-01T04:21:06;100969.91;;;3.86;92.12
60715;BME280;46564;53.096;8.246;2023-02-01T04:26:08;100970.00;;;3.87;91.91
60715;BME280;46564;53.096;8.246;2023-02-01T04:31:10;100974.56;;;3.93;91.92
60715;BME280;46564;53.096;8.246;2023-02-01T04:36:15;100963.44;;;3.96;91.96
60715;BME280;46564;53.096;8.246;2023-02-01T04:41:28;100966.25;;;4.00;91.93
60715;BME280;46564;53.096;8.246;2023-02-01T04:46:31;100953.44;;;4.03;91.91
60715;BME280;46564;53.096;8.246;2023-02-01T04:51:33;100956.88;;;4.02;91.83
60715;BME280;46564;53.096;8.246;2023-02-01T04:56:35;100971.66;;;4.05;91.97
60715;BME280;46564;53.096;8.246;2023-02-01T05:01:37;100958.34;;;3.97;92.17
60715;BME280;46564;53.096;8.246;2023-02-01T05:06:39;100973.47;;;3.88;92.31
60715;BME280;46564;53.096;8.246;2023-02-01T05:11:42;100967.25;;;3.84;92.54
60715;BME280;46564;53.096;8.246;2023-02-01T05:17:02;100966.22;;;3.81;93.08
60715;BME280;46564;53.096;8.246;2023-02-01T05:22:03;100952.91;;;3.73;92.76
60715;BME280;46564;53.096;8.246;2023-02-01T05:27:07;100953.50;;;3.67;92.86
60715;BME280;46564;53.096;8.246;2023-02-01T05:32:10;100957.06;;;3.69;92.86
60715;BME280;46564;53.096;8.246;2023-02-01T05:37:23;100945.19;;;3.75;93.12
60715;BME280;46564;53.096;8.246;2023-02-01T05:42:24;100935.94;;;3.80;93.36
60715;BME280;46564;53.096;8.246;2023-02-01T05:47:26;100951.22;;;3.93;93.62
60715;BME280;46564;53.096;8.246;2023-02-01T05:52:28;100947.97;;;3.97;93.50
60715;BME280;46564;53.096;8.246;2023-02-01T05:57:29;100942.28;;;4.04;93.43
60715;BME280;46564;53.096;8.246;2023-02-01T06:02:31;100966.59;;;4.08;93.39
60715;BME280;46564;53.096;8.246;2023-02-01T06:07:35;100987.28;;;4.06;93.54
60715;BME280;46564;53.096;8.246;2023-02-01T06:12:36;100981.94;;;4.03;93.46
60715;BME280;46564;53.096;8.246;2023-02-01T06:17:38;100976.94;;;3.88;93.65
60715;BME280;46564;53.096;8.246;2023-02-01T06:22:42;100969.31;;;3.56;93.57
60715;BME280;46564;53.096;8.246;2023-02-01T06:27:44;100981.97;;;3.49;93.52
60715;BME280;46564;53.096;8.246;2023-02-01T06:32:50;100984.41;;;3.64;93.75
60715;BME280;46564;53.096;8.246;2023-02-01T06:37:55;100991.09;;;3.77;93.51
60715;BME280;46564;53.096;8.246;2023-02-01T06:42:56;100978.84;;;3.93;93.79
60715;BME280;46564;53.096;8.246;2023-02-01T06:47:59;100965.44;;;4.01;93.73
60715;BME280;46564;53.096;8.246;2023-02-01T06:53:04;100973.50;;;4.07;93.58
60715;BME280;46564;53.096;8.246;2023-02-01T06:58:05;100985.34;;;4.20;93.79
60715;BME280;46564;53.096;8.246;2023-02-01T07:03:07;100992.63;;;4.29;93.43
60715;BME280;46564;53.096;8.246;2023-02-01T07:08:09;101000.34;;;4.28;92.91
60715;BME280;46564;53.096;8.246;2023-02-01T07:13:11;101011.34;;;4.22;92.78
60715;BME280;46564;53.096;8.246;2023-02-01T07:18:16;101004.34;;;4.21;92.59
60715;BME280;46564;53.096;8.246;2023-02-01T07:23:18;101004.16;;;4.16;92.47
60715;BME280;46564;53.096;8.246;2023-02-01T07:28:20;101012.72;;;4.15;92.52
60715;BME280;46564;53.096;8.246;2023-02-01T07:33:23;101007.34;;;4.11;92.91
60715;BME280;46564;53.096;8.246;2023-02-01T07:38:28;101025.47;;;4.11;93.00
60715;BME280;46564;53.096;8.246;2023-02-01T07:43:30;101033.31;;;4.12;93.18
60715;BME280;46564;53.096;8.246;2023-02-01T07:48:33;101034.91;;;4.09;93.40
60715;BME280;46564;53.096;8.246;2023-02-01T07:53:37;101057.38;;;4.10;93.63
60715;BME280;46564;53.096;8.246;2023-02-01T07:58:39;101045.41;;;4.12;93.80
60715;BME280;46564;53.096;8.246;2023-02-01T08:03:41;101034.41;;;4.17;93.63
60715;BME280;46564;53.096;8.246;2023-02-01T08:08:43;101030.13;;;4.18;93.47
60715;BME280;46564;53.096;8.246;2023-02-01T08:13:49;101045.03;;;4.22;93.36
60715;BME280;46564;53.096;8.246;2023-02-01T08:18:52;101051.06;;;4.40;93.23
60715;BME280;46564;53.096;8.246;2023-02-01T08:23:54;101046.22;;;4.48;93.21
60715;BME280;46564;53.096;8.246;2023-02-01T08:29:00;101047.09;;;4.49;93.01
60715;BME280;46564;53.096;8.246;2023-02-01T08:34:03;101047.94;;;4.48;92.70
60715;BME280;46564;53.096;8.246;2023-02-01T08:39:10;101049.03;;;4.53;92.71
60715;BME280;46564;53.096;8.246;2023-02-01T08:44:12;101044.19;;;4.60;92.70
60715;BME280;46564;53.096;8.246;2023-02-01T08:49:16;101042.56;;;4.63;92.52
60715;BME280;46564;53.096;8.246;2023-02-01T08:54:18;101038.38;;;4.66;92.28
60715;BME280;46564;53.096;8.246;2023-02-01T08:59:20;101051.75;;;4.75;92.24
60715;BME280;46564;53.096;8.246;2023-02-01T09:04:22;101043.09;;;4.75;91.93
60715;BME280;46564;53.096;8.246;2023-02-01T09:09:27;101038.72;;;4.74;91.52
60715;BME280;46564;53.096;8.246;2023-02-01T09:14:29;101039.00;;;4.80;91.19
60715;BME280;46564;53.096;8.246;2023-02-01T09:19:52;101031.53;;;4.88;90.91
60715;BME280;46564;53.096;8.246;2023-02-01T09:24:53;101023.84;;;4.89;90.54
60715;BME280;46564;53.096;8.246;2023-02-01T09:29:55;101021.16;;;4.88;90.67
60715;BME280;46564;53.096;8.246;2023-02-01T09:34:57;101005.75;;;4.91;90.50
60715;BME280;46564;53.096;8.246;2023-02-01T09:39:59;101006.63;;;4.91;90.17
60715;BME280;46564;53.096;8.246;2023-02-01T09:45:06;101002.47;;;4.95;90.00
60715;BME280;46564;53.096;8.246;2023-02-01T09:50:15;101010.19;;;4.93;89.83
60715;BME280;46564;53.096;8.246;2023-02-01T09:55:36;101007.78;;;4.98;89.76
60715;BME280;46564;53.096;8.246;2023-02-01T10:00:44;101000.84;;;4.97;89.50
60715;BME280;46564;53.096;8.246;2023-02-01T10:11:37;100990.47;;;4.97;89.33
60715;BME280;46564;53.096;8.246;2023-02-01T10:17:05;100982.97;;;4.84;89.70
60715;BME280;46564;53.096;8.246;2023-02-01T10:22:41;100958.19;;;4.71;90.09
60715;BME280;46564;53.096;8.246;2023-02-01T10:28:04;100945.81;;;4.65;90.57
60715;BME280;46564;53.096;8.246;2023-02-01T10:33:24;100941.88;;;4.73;91.00
60715;BME280;46564;53.096;8.246;2023-02-01T10:38:28;100931.69;;;4.78;91.14
60715;BME280;46564;53.096;8.246;2023-02-01T10:43:30;100921.38;;;4.80;91.07
60715;BME280;46564;53.096;8.246;2023-02-01T10:48:33;100913.47;;;4.76;91.17
60715;BME280;46564;53.096;8.246;2023-02-01T10:53:44;100905.97;;;4.63;91.44
60715;BME280;46564;53.096;8.246;2023-02-01T10:58:49;100902.91;;;4.52;91.69
60715;BME280;46564;53.096;8.246;2023-02-01T11:04:02;100867.63;;;4.56;92.48
60715;BME280;46564;53.096;8.246;2023-02-01T11:14:14;100859.31;;;4.43;92.58
60715;BME280;46564;53.096;8.246;2023-02-01T11:19:17;100824.97;;;4.28;92.72
60715;BME280;46564;53.096;8.246;2023-02-01T11:24:23;100812.28;;;4.15;92.91
60715;BME280;46564;53.096;8.246;2023-02-01T11:29:36;100825.78;;;4.07;93.23
60715;BME280;46564;53.096;8.246;2023-02-01T11:34:48;100809.56;;;4.12;93.35
60715;BME280;46564;53.096;8.246;2023-02-01T11:39:56;100787.19;;;4.14;93.57
60715;BME280;46564;53.096;8.246;2023-02-01T11:45:20;100782.13;;;4.17;93.84
60715;BME280;46564;53.096;8.246;2023-02-01T11:50:47;100739.84;;;4.18;94.13
60715;BME280;46564;53.096;8.246;2023-02-01T12:01:44;100809.78;;;3.97;94.41
60715;BME280;46564;53.096;8.246;2023-02-01T12:07:00;100889.66;;;3.68;94.07
60715;BME280;46564;53.096;8.246;2023-02-01T12:12:19;100884.56;;;3.51;93.96
60715;BME280;46564;53.096;8.246;2023-02-01T12:17:42;100903.66;;;3.35;93.72
60715;BME280;46564;53.096;8.246;2023-02-01T12:28:22;100923.78;;;3.23;93.69
60715;BME280;46564;53.096;8.246;2023-02-01T12:38:48;100906.09;;;3.14;93.54
60715;BME280;46564;53.096;8.246;2023-02-01T12:49:06;100915.50;;;3.30;93.43
60715;BME280;46564;53.096;8.246;2023-02-01T12:54:19;100906.38;;;3.21;93.57
60715;BME280;46564;53.096;8.246;2023-02-01T12:59:28;100911.16;;;2.95;93.61
60715;BME280;46564;53.096;8.246;2023-02-01T13:04:37;100919.00;;;2.96;93.67
60715;BME280;46564;53.096;8.246;2023-02-01T13:09:55;100905.25;;;2.97;93.63
60715;BME280;46564;53.096;8.246;2023-02-01T13:15:36;100913.47;;;3.07;93.79
60715;BME280;46564;53.096;8.246;2023-02-01T13:20:34;100909.31;;;3.10;93.89
60715;BME280;46564;53.096;8.246;2023-02-01T13:25:46;100903.63;;;2.99;93.66
60715;BME280;46564;53.096;8.246;2023-02-01T13:47:39;100887.00;;;3.48;94.10
60715;BME280;46564;53.096;8.246;2023-02-01T13:52:55;100893.25;;;3.71;94.26
60715;BME280;46564;53.096;8.246;2023-02-01T13:58:18;100888.19;;;3.93;94.13
60715;BME280;46564;53.096;8.246;2023-02-01T14:03:22;100891.53;;;4.10;94.12
60715;BME280;46564;53.096;8.246;2023-02-01T14:08:45;100901.81;;;4.28;93.94
60715;BME280;46564;53.096;8.246;2023-02-01T14:13:48;100889.63;;;4.45;93.60
60715;BME280;46564;53.096;8.246;2023-02-01T14:18:58;100893.69;;;4.59;93.53
60715;BME280;46564;53.096;8.246;2023-02-01T14:24:04;100890.38;;;4.83;93.28
60715;BME280;46564;53.096;8.246;2023-02-01T14:29:38;100905.31;;;5.09;93.09
60715;BME280;46564;53.096;8.246;2023-02-01T14:50:41;100929.78;;;5.37;90.76
60715;BME280;46564;53.096;8.246;2023-02-01T15:06:24;100925.63;;;5.41;89.27
60715;BME280;46564;53.096;8.246;2023-02-01T15:11:30;100923.69;;;5.58;89.28
60715;BME280;46564;53.096;8.246;2023-02-01T15:16:59;100928.66;;;5.74;88.75
60715;BME280;46564;53.096;8.246;2023-02-01T15:22:38;100916.94;;;5.84;88.02
60715;BME280;46564;53.096;8.246;2023-02-01T15:27:41;100937.50;;;5.79;87.35
60715;BME280;46564;53.096;8.246;2023-02-01T15:32:43;100937.50;;;5.57;86.97
60715;BME280;46564;53.096;8.246;2023-02-01T15:43:20;100951.66;;;5.42;86.82
60715;BME280;46564;53.096;8.246;2023-02-01T15:48:26;100956.34;;;5.51;86.93
60715;BME280;46564;53.096;8.246;2023-02-01T15:53:30;100933.72;;;5.48;86.62
60715;BME280;46564;53.096;8.246;2023-02-01T15:58:36;100928.41;;;5.45;86.49
60715;BME280;46564;53.096;8.246;2023-02-01T16:03:44;100993.03;;;5.38;86.59
60715;BME280;46564;53.096;8.246;2023-02-01T16:14:00;100986.97;;;5.18;86.81
60715;BME280;46564;53.096;8.246;2023-02-01T16:19:02;101006.88;;;5.17;87.36
60715;BME280;46564;53.096;8.246;2023-02-01T16:24:04;101044.38;;;5.04;87.63
60715;BME280;46564;53.096;8.246;2023-02-01T16:29:07;101025.63;;;4.90;87.83
60715;BME280;46564;53.096;8.246;2023-02-01T16:34:14;101036.53;;;5.03;87.94
60715;BME280;46564;53.096;8.246;2023-02-01T16:39:17;101048.34;;;5.16;87.46
60715;BME280;46564;53.096;8.246;2023-02-01T16:44:19;101044.69;;;5.10;87.19
60715;BME280;46564;53.096;8.246;2023-02-01T16:49:24;101034.91;;;5.05;86.42
60715;BME280;46564;53.096;8.246;2023-02-01T16:54:27;101042.00;;;4.89;86.18
60715;BME280;46564;53.096;8.246;2023-02-01T16:59:28;101036.19;;;4.95;86.40
60715;BME280;46564;53.096;8.246;2023-02-01T17:04:30;101043.44;;;5.02;86.07
60715;BME280;46564;53.096;8.246;2023-02-01T17:09:34;101056.97;;;4.95;85.98
60715;BME280;46564;53.096;8.246;2023-02-01T17:14:42;101057.16;;;5.00;85.81
60715;BME280;46564;53.096;8.246;2023-02-01T17:19:50;101070.84;;;4.95;85.44
60715;BME280;46564;53.096;8.246;2023-02-01T17:24:53;101078.63;;;4.95;85.34
60715;BME280;46564;53.096;8.246;2023-02-01T17:29:55;101075.31;;;5.00;85.28
60715;BME280;46564;53.096;8.246;2023-02-01T17:34:57;101077.09;;;5.01;85.46
60715;BME280;46564;53.096;8.246;2023-02-01T17:40:00;101083.25;;;5.03;85.22
60715;BME280;46564;53.096;8.246;2023-02-01T17:50:25;101109.84;;;4.97;85.45
60715;BME280;46564;53.096;8.246;2023-02-01T17:55:34;101112.06;;;4.89;85.36
60715;BME280;46564;53.096;8.246;2023-02-01T18:00:36;101114.75;;;4.91;85.51
60715;BME280;46564;53.096;8.246;2023-02-01T18:05:46;101110.50;;;4.93;85.30
60715;BME280;46564;53.096;8.246;2023-02-01T18:11:04;101109.84;;;4.97;84.89
60715;BME280;46564;53.096;8.246;2023-02-01T18:16:26;101110.56;;;4.94;84.86
60715;BME280;46564;53.096;8.246;2023-02-01T18:21:32;101118.28;;;4.93;84.62
60715;BME280;46564;53.096;8.246;2023-02-01T18:27:00;101111.66;;;5.00;84.66
60715;BME280;46564;53.096;8.246;2023-02-01T18:32:31;101126.28;;;4.98;84.42
60715;BME280;46564;53.096;8.246;2023-02-01T18:37:49;101113.09;;;4.93;84.67
60715;BME280;46564;53.096;8.246;2023-02-01T18:43:01;101120.22;;;4.97;84.37
60715;BME280;46564;53.096;8.246;2023-02-01T18:48:09;101120.34;;;5.00;84.27
60715;BME280;46564;53.096;8.246;2023-02-01T18:53:21;101125.41;;;4.97;83.96
60715;BME280;46564;53.096;8.246;2023-02-01T18:58:28;101126.16;;;4.94;83.80
60715;BME280;46564;53.096;8.246;2023-02-01T19:03:35;101124.38;;;4.93;83.49
60715;BME280;46564;53.096;8.246;2023-02-01T19:08:47;101128.53;;;4.90;83.13
60715;BME280;46564;53.096;8.246;2023-02-01T19:14:02;101126.47;;;4.83;83.00
60715;BME280;46564;53.096;8.246;2023-02-01T19:19:04;101128.50;;;4.70;83.14
60715;BME280;46564;53.096;8.246;2023-02-01T19:24:06;101134.28;;;4.65;83.37
60715;BME280;46564;53.096;8.246;2023-02-01T19:29:16;101139.47;;;4.65;83.58
60715;BME280;46564;53.096;8.246;2023-02-01T19:34:20;101154.56;;;4.54;83.72
60715;BME280;46564;53.096;8.246;2023-02-01T19:39:22;101161.13;;;4.47;84.15
60715;BME280;46564;53.096;8.246;2023-02-01T19:44:28;101161.81;;;4.43;84.40
60715;BME280;46564;53.096;8.246;2023-02-01T19:49:30;101157.44;;;4.42;84.26
60715;BME280;46564;53.096;8.246;2023-02-01T19:54:31;101166.78;;;4.38;84.38
60715;BME280;46564;53.096;8.246;2023-02-01T19:59:33;101165.66;;;4.33;84.44
60715;BME280;46564;53.096;8.246;2023-02-01T20:23:23;101180.47;;;4.54;84.96
60715;BME280;46564;53.096;8.246;2023-02-01T20:28:25;101179.44;;;4.50;84.92
60715;BME280;46564;53.096;8.246;2023-02-01T20:33:27;101183.38;;;4.42;85.03
60715;BME280;46564;53.096;8.246;2023-02-01T20:38:30;101178.25;;;4.43;85.33
60715;BME280;46564;53.096;8.246;2023-02-01T20:43:32;101204.19;;;4.43;85.27
60715;BME280;46564;53.096;8.246;2023-02-01T20:48:34;101206.13;;;4.48;85.41
60715;BME280;46564;53.096;8.246;2023-02-01T20:53:36;101199.44;;;4.53;85.13
60715;BME280;46564;53.096;8.246;2023-02-01T20:58:39;101209.88;;;4.54;85.18
60715;BME280;46564;53.096;8.246;2023-02-01T21:03:41;101214.19;;;4.54;85.04
60715;BME280;46564;53.096;8.246;2023-02-01T21:08:43;101210.81;;;4.55;84.96
60715;BME280;46564;53.096;8.246;2023-02-01T21:13:45;101200.88;;;4.46;84.99
60715;BME280;46564;53.096;8.246;2023-02-01T21:18:51;101220.03;;;4.50;84.69
60715;BME280;46564;53.096;8.246;2023-02-01T21:23:55;101221.69;;;4.48;84.34
60715;BME280;46564;53.096;8.246;2023-02-01T21:28:57;101218.94;;;4.45;83.89
60715;BME280;46564;53.096;8.246;2023-02-01T21:33:59;101223.91;;;4.40;83.83
60715;BME280;46564;53.096;8.246;2023-02-01T21:39:03;101238.19;;;4.50;83.15
60715;BME280;46564;53.096;8.246;2023-02-01T21:44:05;101233.81;;;4.49;82.85
60715;BME280;46564;53.096;8.246;2023-02-01T21:49:07;101243.91;;;4.42;82.60
60715;BME280;46564;53.096;8.246;2023-02-01T21:54:10;101255.47;;;4.49;82.53
60715;BME280;46564;53.096;8.246;2023-02-01T21:59:12;101251.09;;;4.48;82.47
60715;BME280;46564;53.096;8.246;2023-02-01T22:04:13;101266.66;;;4.48;82.46
60715;BME280;46564;53.096;8.246;2023-02-01T22:09:20;101266.56;;;4.47;82.38
60715;BME280;46564;53.096;8.246;2023-02-01T22:14:22;101255.91;;;4.40;82.48
60715;BME280;46564;53.096;8.246;2023-02-01T22:19:23;101273.56;;;4.48;82.62
60715;BME280;46564;53.096;8.246;2023-02-01T22:24:25;101282.00;;;4.62;82.38
60715;BME280;46564;53.096;8.246;2023-02-01T22:29:27;101281.44;;;4.67;82.47
60715;BME280;46564;53.096;8.246;2023-02-01T22:34:28;101284.09;;;4.69;82.18
60715;BME280;46564;53.096;8.246;2023-02-01T22:39:30;101294.41;;;4.67;82.48
60715;BME280;46564;53.096;8.246;2023-02-01T22:44:31;101298.75;;;4.68;82.55
60715;BME280;46564;53.096;8.246;2023-02-01T22:49:33;101294.69;;;4.73;82.82
60715;BME280;46564;53.096;8.246;2023-02-01T22:54:35;101295.66;;;4.75;82.53
60715;BME280;46564;53.096;8.246;2023-02-01T22:59:36;101302.78;;;4.80;82.43
60715;BME280;46564;53.096;8.246;2023-02-01T23:04:38;101307.97;;;4.80;82.53
60715;BME280;46564;53.096;8.246;2023-02-01T23:09:39;101317.47;;;4.79;82.56
60715;BME280;46564;53.096;8.246;2023-02-01T23:14:41;101317.69;;;4.84;82.31
60715;BME280;46564;53.096;8.246;2023-02-01T23:20:05;101327.75;;;4.77;82.28
60715;BME280;46564;53.096;8.246;2023-02-01T23:25:07;101336.13;;;4.72;82.42
60715;BME280;46564;53.096;8.246;2023-02-01T23:30:10;101344.78;;;4.72;82.58
60715;BME280;46564;53.096;8.246;2023-02-01T23:35:11;101341.09;;;4.67;82.79
60715;BME280;46564;53.096;8.246;2023-02-01T23:40:13;101342.84;;;4.68;82.76
60715;BME280;46564;53.096;8.246;2023-02-01T23:45:14;101358.56;;;4.71;82.84
60715;BME280;46564;53.096;8.246;2023-02-01T23:50:16;101356.88;;;4.72;82.65
60715;BME280;46564;53.096;8.246;2023-02-01T23:55:18;101362.31;;;4.76;82.37
